createdAt,value
2022-10-11T00:01:01.376Z,14.30
2022-10-11T00:03:29.562Z,13.50
2022-10-11T00:05:57.948Z,13.20
2022-10-11T00:08:27.161Z,13.73
2022-10-11T00:10:59.766Z,13.60
2022-10-11T00:13:28.522Z,13.00
2022-10-11T00:15:58.426Z,13.10
2022-10-11T00:18:26.465Z,12.33
2022-10-11T00:21:02.904Z,12.00
2022-10-11T00:23:31.106Z,12.17
2022-10-11T00:26:00.010Z,11.83
2022-10-11T00:28:28.602Z,12.07
2022-10-11T00:30:58.453Z,11.37
2022-10-11T00:33:26.993Z,12.53
2022-10-11T00:35:55.055Z,11.50
2022-10-11T00:38:23.077Z,11.27
2022-10-11T00:40:51.061Z,12.20
2022-10-11T00:43:21.371Z,12.50
2022-10-11T00:46:23.067Z,12.33
2022-10-11T00:48:55.722Z,11.67
2022-10-11T00:51:30.104Z,12.03
2022-10-11T00:54:00.973Z,11.87
2022-10-11T00:56:33.550Z,12.13
2022-10-11T00:59:04.861Z,11.80
2022-10-11T01:01:34.754Z,11.90
2022-10-11T01:04:03.270Z,11.80
2022-10-11T01:06:31.266Z,11.93
2022-10-11T01:09:00.178Z,11.57
2022-10-11T01:11:30.864Z,12.40
2022-10-11T01:14:34.568Z,12.73
2022-10-11T01:17:14.397Z,12.30
2022-10-11T01:20:16.978Z,12.33
2022-10-11T01:23:18.915Z,13.07
2022-10-11T01:26:10.351Z,11.70
2022-10-11T01:28:48.019Z,12.57
2022-10-11T01:31:27.464Z,12.27
2022-10-11T01:34:01.103Z,12.80
2022-10-11T01:36:33.817Z,12.13
2022-10-11T01:39:06.214Z,12.67
2022-10-11T01:41:39.453Z,11.87
2022-10-11T01:44:09.132Z,13.10
2022-10-11T01:46:39.075Z,12.43
2022-10-11T01:49:07.475Z,12.60
2022-10-11T01:51:38.388Z,13.63
2022-10-11T01:54:49.843Z,13.30
2022-10-11T01:57:51.593Z,13.57
2022-10-11T02:00:21.390Z,14.90
2022-10-11T02:03:07.029Z,15.23
2022-10-11T02:05:41.404Z,15.03
2022-10-11T02:08:16.099Z,17.63
2022-10-11T02:10:49.411Z,16.67
2022-10-11T02:13:24.288Z,16.93
2022-10-11T02:15:55.035Z,16.77
2022-10-11T02:18:27.747Z,17.23
2022-10-11T02:20:58.485Z,18.43
2022-10-11T02:23:30.904Z,18.43
2022-10-11T02:25:59.416Z,18.50
2022-10-11T02:28:31.119Z,18.03
2022-10-11T02:31:01.179Z,18.40
2022-10-11T02:33:39.994Z,18.80
2022-10-11T02:36:14.235Z,20.57
2022-10-11T02:38:49.299Z,20.60
2022-10-11T02:41:23.660Z,20.60
2022-10-11T02:43:59.437Z,20.77
2022-10-11T02:46:33.149Z,20.93
2022-10-11T02:49:03.470Z,22.53
2022-10-11T02:51:32.616Z,21.83
2022-10-11T02:54:01.218Z,22.07
2022-10-11T02:56:29.314Z,24.40
2022-10-11T02:58:57.321Z,23.37
2022-10-11T03:01:25.782Z,24.00
2022-10-11T03:03:53.849Z,23.17
2022-10-11T03:06:23.240Z,21.87
2022-10-11T03:08:51.287Z,22.80
2022-10-11T03:11:19.252Z,22.63
2022-10-11T03:13:47.254Z,22.77
2022-10-11T03:16:15.434Z,22.87
2022-10-11T03:18:46.048Z,21.67
2022-10-11T03:21:14.297Z,21.80
2022-10-11T03:23:43.725Z,22.87
2022-10-11T03:26:11.731Z,23.20
2022-10-11T03:28:39.808Z,22.63
2022-10-11T03:31:07.816Z,22.10
2022-10-11T03:33:36.084Z,22.43
2022-10-11T03:36:04.444Z,21.67
2022-10-11T03:38:32.711Z,21.47
2022-10-11T03:41:05.935Z,20.67
2022-10-11T03:43:33.937Z,21.67
2022-10-11T03:46:02.253Z,21.47
2022-10-11T03:48:30.765Z,20.77
2022-10-11T03:50:59.040Z,21.50
2022-10-11T03:53:27.063Z,20.50
2022-10-11T03:55:55.534Z,22.50
2022-10-11T03:58:25.220Z,21.53
2022-10-11T04:00:53.951Z,21.00
2022-10-11T04:03:21.960Z,21.90
2022-10-11T04:05:50.293Z,21.90
2022-10-11T04:08:18.314Z,20.40
2022-10-11T04:10:46.292Z,21.40
2022-10-11T04:13:14.404Z,20.97
2022-10-11T04:15:43.845Z,20.50
2022-10-11T04:18:11.960Z,20.57
2022-10-11T04:20:40.176Z,20.47
2022-10-11T04:23:08.171Z,21.73
2022-10-11T04:25:36.162Z,20.93
2022-10-11T04:28:04.186Z,21.03
2022-10-11T04:30:32.184Z,20.83
2022-10-11T04:33:01.538Z,19.83
2022-10-11T04:35:30.207Z,18.90
2022-10-11T04:37:58.196Z,20.13
2022-10-11T04:40:26.192Z,20.50
2022-10-11T04:42:54.286Z,19.80
2022-10-11T04:45:22.698Z,18.67
2022-10-11T04:47:50.833Z,20.17
2022-10-11T04:50:23.906Z,19.17
2022-10-11T04:52:51.942Z,19.83
2022-10-11T04:55:19.930Z,20.87
2022-10-11T04:57:47.889Z,20.90
2022-10-11T05:00:16.621Z,19.97
2022-10-11T05:02:44.623Z,19.07
2022-10-11T05:05:17.363Z,18.60
2022-10-11T05:07:49.120Z,17.60
2022-10-11T05:10:17.317Z,17.57
2022-10-11T05:12:45.354Z,18.97
2022-10-11T05:15:13.394Z,19.97
2022-10-11T05:17:41.362Z,18.60
2022-10-11T05:20:10.279Z,18.47
2022-10-11T05:22:38.293Z,18.60
2022-10-11T05:25:08.476Z,17.93
2022-10-11T05:27:36.486Z,18.43
2022-10-11T05:30:06.632Z,18.67
2022-10-11T05:32:34.674Z,18.40
2022-10-11T05:35:02.701Z,19.93
2022-10-11T05:37:31.177Z,21.27
2022-10-11T05:39:59.156Z,20.97
2022-10-11T05:42:28.497Z,22.07
2022-10-11T05:44:56.485Z,21.17
2022-10-11T05:47:24.507Z,20.67
2022-10-11T05:49:52.497Z,21.37
2022-10-11T05:52:21.648Z,20.17
2022-10-11T05:54:52.099Z,19.50
2022-10-11T05:57:20.072Z,19.17
2022-10-11T05:59:49.436Z,19.17
2022-10-11T06:02:17.428Z,17.93
2022-10-11T06:04:45.418Z,18.57
2022-10-11T06:07:13.392Z,18.10
2022-10-11T06:09:41.409Z,18.17
2022-10-11T06:12:09.405Z,18.57
2022-10-11T06:14:39.623Z,17.00
2022-10-11T06:17:08.969Z,17.77
2022-10-11T06:19:37.029Z,16.47
2022-10-11T06:22:05.141Z,16.57
2022-10-11T06:24:33.213Z,17.13
2022-10-11T06:27:01.207Z,15.77
2022-10-11T06:29:29.216Z,15.90
2022-10-11T06:31:58.389Z,16.50
2022-10-11T06:34:27.722Z,14.53
2022-10-11T06:36:55.866Z,14.77
2022-10-11T06:39:23.850Z,16.50
2022-10-11T06:41:51.856Z,14.07
2022-10-11T06:44:19.861Z,14.30
2022-10-11T06:46:47.866Z,13.33
2022-10-11T06:49:20.664Z,13.83
2022-10-11T06:51:54.624Z,13.07
2022-10-11T06:54:22.620Z,12.80
2022-10-11T06:56:50.825Z,12.67
2022-10-11T06:59:19.016Z,12.90
2022-10-11T07:01:47.042Z,12.13
2022-10-11T07:04:18.135Z,12.53
2022-10-11T07:06:46.108Z,12.00
2022-10-11T07:09:17.509Z,11.50
2022-10-11T07:11:46.280Z,11.60
2022-10-11T07:14:15.486Z,12.50
2022-10-11T07:16:43.458Z,11.50
2022-10-11T07:19:11.783Z,11.87
2022-10-11T07:21:39.825Z,13.13
2022-10-11T07:24:08.487Z,12.73
2022-10-11T07:26:38.809Z,12.53
2022-10-11T07:29:07.888Z,12.10
2022-10-11T07:31:37.743Z,12.50
2022-10-11T07:34:06.265Z,13.07
2022-10-11T07:36:35.970Z,14.03
2022-10-11T07:39:05.896Z,14.23
2022-10-11T07:41:43.137Z,13.43
2022-10-11T07:44:13.592Z,14.67
2022-10-11T07:46:43.204Z,14.00
2022-10-11T07:49:11.218Z,14.23
2022-10-11T07:51:39.273Z,13.70
2022-10-11T07:54:07.703Z,14.07
2022-10-11T07:56:37.937Z,14.20
2022-10-11T07:59:06.367Z,14.30
2022-10-11T08:01:37.663Z,12.97
2022-10-11T08:04:06.062Z,13.20
2022-10-11T08:06:34.116Z,13.37
2022-10-11T08:09:02.534Z,12.47
2022-10-11T08:11:33.062Z,12.20
2022-10-11T08:14:04.416Z,12.90
2022-10-11T08:16:32.948Z,12.20
2022-10-11T08:19:02.981Z,12.07
2022-10-11T08:21:32.272Z,11.63
2022-10-11T08:24:00.283Z,11.67
2022-10-11T08:26:28.269Z,12.23
2022-10-11T08:28:56.357Z,12.30
2022-10-11T08:31:25.985Z,12.00
2022-10-11T08:33:54.595Z,12.60
2022-10-11T08:36:22.600Z,12.17
2022-10-11T08:38:50.786Z,11.20
2022-10-11T08:41:31.995Z,11.97
2022-10-11T08:44:14.037Z,12.37
2022-10-11T08:46:48.022Z,11.23
2022-10-11T08:49:19.799Z,11.20
2022-10-11T08:51:52.853Z,12.00
2022-10-11T08:54:26.538Z,12.23
2022-10-11T08:56:54.555Z,12.30
2022-10-11T08:59:31.279Z,12.20
2022-10-11T09:02:08.121Z,11.97
2022-10-11T09:04:36.138Z,12.47
2022-10-11T09:07:11.314Z,11.47
2022-10-11T09:10:06.195Z,11.80
2022-10-11T09:12:47.639Z,11.53
2022-10-11T09:15:33.772Z,11.13
2022-10-11T09:18:25.794Z,10.70
2022-10-11T09:21:08.268Z,10.30
2022-10-11T09:23:56.698Z,10.67
2022-10-11T09:26:29.037Z,11.67
2022-10-11T09:29:07.738Z,10.53
2022-10-11T09:31:36.028Z,9.77
2022-10-11T09:34:13.370Z,10.53
2022-10-11T09:36:47.675Z,10.30
2022-10-11T09:39:25.914Z,13.93
2022-10-11T09:41:59.984Z,13.03
2022-10-11T09:44:30.436Z,10.53
2022-10-11T09:46:58.809Z,10.07
2022-10-11T09:49:32.883Z,9.50
2022-10-11T09:52:04.001Z,9.37
2022-10-11T09:54:40.539Z,8.70
2022-10-11T09:57:22.916Z,9.30
2022-10-11T10:00:01.081Z,8.77
2022-10-11T10:02:30.569Z,8.70
2022-10-11T10:05:15.204Z,9.10
2022-10-11T10:08:04.328Z,8.80
2022-10-11T10:10:38.566Z,8.97
2022-10-11T10:13:17.612Z,8.93
2022-10-11T10:15:48.170Z,8.17
2022-10-11T10:18:23.700Z,7.27
2022-10-11T10:20:59.482Z,7.50
2022-10-11T10:23:30.803Z,7.63
2022-10-11T10:26:17.296Z,7.23
2022-10-11T10:29:04.850Z,7.50
2022-10-11T10:31:55.365Z,8.40
2022-10-11T10:34:31.023Z,7.40
2022-10-11T10:37:04.880Z,7.43
2022-10-11T10:39:41.696Z,7.50
2022-10-11T10:42:16.165Z,7.67
2022-10-11T10:44:45.273Z,8.93
2022-10-11T10:47:20.858Z,9.33
2022-10-11T10:49:55.505Z,8.80
2022-10-11T10:52:43.842Z,8.43
2022-10-11T10:55:23.017Z,8.97
2022-10-11T10:58:05.104Z,9.07
2022-10-11T11:00:44.352Z,9.10
2022-10-11T11:03:21.400Z,8.97
2022-10-11T11:05:58.625Z,9.13
2022-10-11T11:08:43.637Z,9.47
2022-10-11T11:11:32.144Z,9.43
2022-10-11T11:14:04.848Z,8.87
2022-10-11T11:16:42.097Z,9.27
2022-10-11T11:19:24.070Z,9.50
2022-10-11T11:22:00.530Z,9.07
2022-10-11T11:24:41.309Z,8.40
2022-10-11T11:27:23.321Z,8.00
2022-10-11T11:30:02.322Z,7.97
2022-10-11T11:32:45.595Z,7.83
2022-10-11T11:35:25.341Z,9.43
2022-10-11T11:38:03.835Z,8.10
2022-10-11T11:40:40.445Z,9.20
2022-10-11T11:43:16.086Z,9.30
2022-10-11T11:45:50.987Z,9.80
2022-10-11T11:48:24.556Z,9.73
2022-10-11T11:50:58.002Z,9.03
2022-10-11T11:53:41.993Z,9.53
2022-10-11T11:56:18.529Z,9.37
2022-10-11T11:58:54.526Z,10.43
2022-10-11T12:01:31.562Z,10.87
2022-10-11T12:04:04.204Z,10.00
2022-10-11T12:06:35.941Z,10.13
2022-10-11T12:09:10.131Z,10.03
2022-10-11T12:11:49.668Z,9.67
2022-10-11T12:14:37.073Z,9.93
2022-10-11T12:17:18.473Z,10.03
2022-10-11T12:20:07.670Z,9.53
2022-10-11T12:22:52.574Z,9.67
2022-10-11T12:25:39.954Z,9.70
2022-10-11T12:28:48.673Z,8.63
2022-10-11T12:31:25.221Z,9.10
2022-10-11T12:34:04.515Z,8.80
2022-10-11T12:36:39.303Z,9.03
2022-10-11T12:39:47.443Z,9.60
2022-10-11T12:42:39.410Z,8.43
2022-10-11T12:45:32.508Z,9.00
2022-10-11T12:48:21.569Z,8.53
2022-10-11T12:51:03.173Z,8.97
2022-10-11T12:54:02.491Z,8.40
2022-10-11T12:56:46.408Z,7.77
2022-10-11T12:59:19.060Z,8.37
2022-10-11T13:01:55.797Z,8.10
2022-10-11T13:04:29.148Z,7.83
2022-10-11T13:07:04.420Z,8.53
2022-10-11T13:09:39.102Z,7.93
2022-10-11T13:12:10.314Z,7.47
2022-10-11T13:14:45.247Z,7.80
2022-10-11T13:17:18.034Z,7.17
2022-10-11T13:19:47.571Z,7.30
2022-10-11T13:22:19.699Z,7.90
2022-10-11T13:24:48.295Z,7.50
2022-10-11T13:27:21.410Z,7.03
2022-10-11T13:29:51.262Z,7.13
2022-10-11T13:32:23.752Z,7.20
2022-10-11T13:37:31.312Z,7.00
2022-10-11T13:39:59.912Z,6.23
2022-10-11T13:42:31.708Z,6.30
2022-10-11T13:45:00.682Z,6.27
2022-10-11T13:47:31.057Z,6.33
2022-10-11T13:50:12.184Z,5.47
2022-10-11T13:52:55.332Z,6.23
2022-10-11T13:55:30.416Z,6.97
2022-10-11T13:58:00.557Z,6.23
2022-10-11T14:00:43.417Z,5.77
2022-10-11T14:03:21.017Z,5.77
2022-10-11T14:05:56.609Z,6.10
2022-10-11T14:08:30.668Z,4.97
2022-10-11T14:11:05.868Z,5.30
2022-10-11T14:13:37.444Z,5.33
2022-10-11T14:16:08.710Z,5.37
2022-10-11T14:18:43.860Z,5.83
2022-10-11T14:21:34.577Z,5.43
2022-10-11T14:24:04.946Z,4.87
2022-10-11T14:26:36.167Z,5.50
2022-10-11T14:29:08.036Z,4.93
2022-10-11T14:31:41.342Z,5.13
2022-10-11T14:34:15.994Z,4.93
2022-10-11T14:36:46.815Z,5.07
2022-10-11T14:39:17.552Z,5.40
2022-10-11T14:41:46.404Z,5.30
2022-10-11T14:44:14.956Z,4.80
2022-10-11T14:46:43.254Z,5.07
2022-10-11T14:49:15.647Z,4.60
2022-10-11T14:51:44.782Z,5.50
2022-10-11T14:54:15.362Z,5.80
2022-10-11T14:56:43.434Z,5.83
2022-10-11T14:59:13.732Z,5.87
2022-10-11T15:01:41.745Z,5.73
2022-10-11T15:04:10.008Z,5.70
2022-10-11T15:06:39.900Z,5.73
2022-10-11T15:09:08.947Z,5.83
2022-10-11T15:11:39.813Z,5.40
2022-10-11T15:14:08.124Z,5.73
2022-10-11T15:16:36.827Z,5.50
2022-10-11T15:19:04.945Z,5.40
2022-10-11T15:21:34.269Z,5.80
2022-10-11T15:24:02.321Z,6.13
2022-10-11T15:26:30.979Z,5.67
2022-10-11T15:29:00.616Z,6.23
2022-10-11T15:31:28.618Z,5.70
2022-10-11T15:33:59.373Z,5.80
2022-10-11T15:36:31.374Z,5.97
2022-10-11T15:38:59.401Z,6.67
2022-10-11T15:41:27.561Z,6.20
2022-10-11T15:43:55.613Z,6.30
2022-10-11T15:46:25.003Z,6.87
2022-10-11T15:48:54.493Z,7.07
2022-10-11T15:51:22.511Z,8.37
2022-10-11T15:53:50.512Z,7.90
2022-10-11T15:56:19.659Z,7.57
2022-10-11T15:58:47.951Z,7.40
2022-10-11T16:01:19.040Z,7.83
2022-10-11T16:03:49.955Z,6.97
2022-10-11T16:06:18.386Z,7.33
2022-10-11T16:08:48.525Z,7.57
2022-10-11T16:11:16.572Z,7.27
2022-10-11T16:13:45.115Z,7.93
2022-10-11T16:16:13.215Z,8.60
2022-10-11T16:18:41.264Z,8.20
2022-10-11T16:21:12.882Z,8.50
2022-10-11T16:23:40.972Z,8.30
2022-10-11T16:26:16.424Z,8.27
2022-10-11T16:28:44.602Z,9.33
2022-10-11T16:31:16.747Z,9.17
2022-10-11T16:33:46.577Z,8.80
2022-10-11T16:36:35.941Z,9.23
2022-10-11T16:39:08.139Z,8.53
2022-10-11T16:41:36.345Z,9.30
2022-10-11T16:44:04.656Z,10.00
2022-10-11T16:46:35.822Z,8.87
2022-10-11T16:49:04.348Z,9.30
2022-10-11T16:51:34.102Z,9.77
2022-10-11T16:54:02.273Z,10.20
2022-10-11T16:56:32.527Z,10.90
2022-10-11T16:59:03.000Z,11.13
2022-10-11T17:01:31.405Z,13.00
2022-10-11T17:03:59.431Z,15.40
2022-10-11T17:06:27.880Z,15.63
2022-10-11T17:08:57.496Z,15.07
2022-10-11T17:11:25.596Z,14.20
2022-10-11T17:13:54.296Z,14.87
2022-10-11T17:16:23.187Z,14.47
2022-10-11T17:18:52.036Z,14.13
2022-10-11T17:21:21.372Z,14.90
2022-10-11T17:23:49.822Z,14.47
2022-10-11T17:26:21.656Z,14.13
2022-10-11T17:28:49.713Z,12.47
2022-10-11T17:31:18.527Z,12.23
2022-10-11T17:33:46.835Z,11.23
2022-10-11T17:36:18.338Z,11.00
2022-10-11T17:38:46.559Z,11.00
2022-10-11T17:41:14.937Z,10.73
2022-10-11T17:43:44.634Z,9.70
2022-10-11T17:46:15.495Z,9.93
2022-10-11T17:48:44.612Z,9.00
2022-10-11T17:51:14.529Z,9.23
2022-10-11T17:53:43.493Z,9.80
2022-10-11T17:56:13.834Z,10.00
2022-10-11T17:58:42.137Z,10.40
2022-10-11T18:01:14.569Z,11.10
2022-10-11T18:03:42.796Z,11.40
2022-10-11T18:06:13.157Z,12.37
2022-10-11T18:08:42.339Z,12.73
2022-10-11T18:11:11.809Z,12.83
2022-10-11T18:13:42.757Z,11.53
2022-10-11T18:16:12.353Z,12.90
2022-10-11T18:18:40.678Z,11.40
2022-10-11T18:21:08.925Z,9.87
2022-10-11T18:23:38.177Z,10.07
2022-10-11T18:26:14.302Z,9.40
2022-10-11T18:28:43.947Z,9.60
2022-10-11T18:31:15.562Z,10.80
2022-10-11T18:33:45.856Z,10.90
2022-10-11T18:36:16.291Z,13.20
2022-10-11T18:38:46.473Z,12.17
2022-10-11T18:41:17.942Z,12.67
2022-10-11T18:43:52.082Z,11.97
2022-10-11T18:46:22.700Z,12.37
2022-10-11T18:48:53.643Z,12.33
2022-10-11T18:51:23.558Z,11.57
2022-10-11T18:53:52.165Z,11.23
2022-10-11T18:56:21.662Z,11.30
2022-10-11T18:58:50.800Z,11.20
2022-10-11T19:01:21.815Z,10.97
2022-10-11T19:03:52.489Z,13.70
2022-10-11T19:06:22.711Z,11.77
2022-10-11T19:08:56.020Z,10.73
2022-10-11T19:11:25.359Z,10.17
2022-10-11T19:13:57.341Z,10.10
2022-10-11T19:16:27.740Z,10.47
2022-10-11T19:18:55.790Z,8.93
2022-10-11T19:21:24.582Z,9.00
2022-10-11T19:23:53.361Z,9.60
2022-10-11T19:26:23.377Z,8.23
2022-10-11T19:28:58.998Z,8.50
2022-10-11T19:31:29.011Z,9.13
2022-10-11T19:33:59.775Z,8.10
2022-10-11T19:36:35.594Z,8.10
2022-10-11T19:39:05.301Z,7.73
2022-10-11T19:41:35.682Z,8.37
2022-10-11T19:44:03.915Z,7.90
2022-10-11T19:49:24.727Z,10.37
2022-10-11T19:51:55.778Z,8.90
2022-10-11T19:54:24.045Z,10.23
2022-10-11T19:56:52.532Z,9.57
2022-10-11T19:59:20.558Z,9.53
2022-10-11T20:01:53.073Z,10.00
2022-10-11T20:04:50.390Z,10.07
2022-10-11T20:07:12.136Z,9.77
2022-10-11T20:09:40.223Z,9.70
2022-10-11T20:12:08.844Z,9.47
2022-10-11T20:14:37.062Z,9.00
2022-10-11T20:17:06.846Z,9.33
2022-10-11T20:19:34.908Z,9.83
2022-10-11T20:22:02.901Z,9.30
2022-10-11T20:24:33.526Z,9.80
2022-10-11T20:27:02.818Z,10.67
2022-10-11T20:29:30.972Z,10.73
2022-10-11T20:32:00.253Z,14.03
2022-10-11T20:34:30.325Z,13.67
2022-10-11T20:36:58.449Z,15.77
2022-10-11T20:39:26.516Z,14.67
2022-10-11T20:41:54.921Z,15.63
2022-10-11T20:44:23.200Z,18.57
2022-10-11T20:46:51.263Z,17.70
2022-10-11T20:49:20.783Z,18.10
2022-10-11T20:51:50.203Z,21.27
2022-10-11T20:54:18.533Z,25.33
2022-10-11T20:56:46.565Z,28.57
2022-10-11T20:59:14.538Z,31.97
2022-10-11T21:01:44.014Z,31.77
2022-10-11T21:04:18.432Z,30.57
2022-10-11T21:06:46.758Z,29.87
2022-10-11T21:09:17.246Z,29.57
2022-10-11T21:11:46.040Z,25.43
2022-10-11T21:14:14.209Z,24.10
2022-10-11T21:16:42.213Z,23.70
2022-10-11T21:19:16.417Z,22.40
2022-10-11T21:21:49.698Z,20.27
2022-10-11T21:24:24.654Z,19.40
2022-10-11T21:26:56.936Z,18.20
2022-10-11T21:29:27.650Z,18.30
2022-10-11T21:31:55.684Z,15.80
2022-10-11T21:34:23.664Z,16.77
2022-10-11T21:36:51.661Z,17.00
2022-10-11T21:39:21.238Z,15.63
2022-10-11T21:41:49.218Z,14.73
2022-10-11T21:44:17.671Z,16.87
2022-10-11T21:47:06.067Z,16.50
2022-10-11T21:49:33.673Z,15.10
2022-10-11T21:52:01.894Z,15.27
2022-10-11T21:54:31.261Z,15.80
2022-10-11T21:56:59.455Z,15.40
2022-10-11T21:59:27.446Z,15.90
2022-10-11T22:01:59.398Z,16.97
2022-10-11T22:04:29.758Z,18.10
2022-10-11T22:06:57.730Z,18.50
2022-10-11T22:09:27.630Z,19.63
2022-10-11T22:11:57.401Z,18.90
2022-10-11T22:14:26.042Z,20.40
2022-10-11T22:16:54.031Z,19.80
2022-10-11T22:19:22.162Z,18.93
2022-10-11T22:21:50.321Z,18.93
2022-10-11T22:24:18.320Z,17.77
2022-10-11T22:26:46.675Z,17.37
2022-10-11T22:29:15.988Z,17.13
2022-10-11T22:31:43.960Z,16.00
2022-10-11T22:34:14.247Z,15.40
2022-10-11T22:36:42.254Z,15.23
2022-10-11T22:39:11.286Z,15.27
2022-10-11T22:41:39.309Z,14.97
2022-10-11T22:44:07.694Z,14.87
2022-10-11T22:46:37.040Z,13.57
2022-10-11T22:49:07.460Z,12.97
2022-10-11T22:51:35.728Z,13.47
2022-10-11T22:54:03.706Z,13.07
2022-10-11T22:56:32.875Z,12.93
2022-10-11T22:59:00.886Z,11.63
2022-10-11T23:01:28.846Z,12.63
2022-10-11T23:03:58.271Z,11.17
2022-10-11T23:06:26.336Z,10.90
2022-10-11T23:08:54.331Z,10.87
2022-10-11T23:11:22.323Z,10.37
2022-10-11T23:13:50.283Z,9.47
2022-10-11T23:16:18.256Z,9.80
2022-10-11T23:18:46.261Z,10.23
2022-10-11T23:21:15.613Z,9.50
2022-10-11T23:23:43.604Z,9.20
2022-10-11T23:26:13.761Z,9.20
2022-10-11T23:28:43.088Z,10.00
2022-10-11T23:31:13.332Z,10.73
2022-10-11T23:33:41.556Z,10.30
2022-10-11T23:36:16.788Z,10.23
2022-10-11T23:38:45.080Z,10.03
2022-10-11T23:41:13.504Z,9.77
2022-10-11T23:43:41.480Z,9.50
2022-10-11T23:46:09.437Z,9.10
2022-10-11T23:48:37.417Z,9.13
2022-10-11T23:51:05.551Z,8.93
2022-10-11T23:53:37.219Z,8.77
2022-10-11T23:56:06.221Z,8.93
2022-10-11T23:58:34.313Z,8.87
